sensor_id;sensor_type;location;lat;lon;timestamp;temperature;humidity
11559;DHT22;5835;42.930;25.178;2023-02-28T00:01:11;6.90;99.90
11559;DHT22;5835;42.930;25.178;2023-02-28T00:03:38;6.90;99.90
11559;DHT22;5835;42.930;25.178;2023-02-28T00:06:09;6.90;99.90
11559;DHT22;5835;42.930;25.178;2023-02-28T00:08:38;6.90;99.90
11559;DHT22;5835;42.930;25.178;2023-02-28T00:11:08;6.90;99.90
11559;DHT22;5835;42.930;25.178;2023-02-28T00:13:38;6.90;99.90
11559;DHT22;5835;42.930;25.178;2023-02-28T00:16:08;6.90;99.90
11559;DHT22;5835;42.930;25.178;2023-02-28T00:18:36;6.90;99.90
11559;DHT22;5835;42.930;25.178;2023-02-28T00:21:04;6.90;99.90
11559;DHT22;5835;42.930;25.178;2023-02-28T00:23:32;7.00;99.90
11559;DHT22;5835;42.930;25.178;2023-02-28T00:26:01;7.00;99.90
11559;DHT22;5835;42.930;25.178;2023-02-28T00:28:29;7.00;99.90
11559;DHT22;5835;42.930;25.178;2023-02-28T00:31:00;6.90;99.90
11559;DHT22;5835;42.930;25.178;2023-02-28T00:33:28;7.00;99.90
11559;DHT22;5835;42.930;25.178;2023-02-28T00:36:04;7.00;99.90
11559;DHT22;5835;42.930;25.178;2023-02-28T00:38:32;7.00;99.90
11559;DHT22;5835;42.930;25.178;2023-02-28T00:41:01;7.00;99.90
11559;DHT22;5835;42.930;25.178;2023-02-28T00:43:31;7.00;99.90
11559;DHT22;5835;42.930;25.178;2023-02-28T00:45:59;6.90;99.90
11559;DHT22;5835;42.930;25.178;2023-02-28T00:48:32;6.90;99.90
11559;DHT22;5835;42.930;25.178;2023-02-28T00:51:00;6.90;99.90
11559;DHT22;5835;42.930;25.178;2023-02-28T00:53:28;6.90;99.90
11559;DHT22;5835;42.930;25.178;2023-02-28T00:55:58;6.90;99.90
11559;DHT22;5835;42.930;25.178;2023-02-28T00:58:27;6.80;99.90
11559;DHT22;5835;42.930;25.178;2023-02-28T01:00:54;6.80;99.90
11559;DHT22;5835;42.930;25.178;2023-02-28T01:03:22;6.80;99.90
11559;DHT22;5835;42.930;25.178;2023-02-28T01:05:50;6.80;99.90
11559;DHT22;5835;42.930;25.178;2023-02-28T01:08:19;6.80;99.90
11559;DHT22;5835;42.930;25.178;2023-02-28T01:10:47;6.90;99.90
11559;DHT22;5835;42.930;25.178;2023-02-28T01:13:14;6.80;99.90
11559;DHT22;5835;42.930;25.178;2023-02-28T01:15:46;6.50;99.90
11559;DHT22;5835;42.930;25.178;2023-02-28T01:18:16;6.60;99.90
11559;DHT22;5835;42.930;25.178;2023-02-28T01:20:44;6.40;99.90
11559;DHT22;5835;42.930;25.178;2023-02-28T01:23:12;6.50;99.90
11559;DHT22;5835;42.930;25.178;2023-02-28T01:25:39;6.40;99.90
11559;DHT22;5835;42.930;25.178;2023-02-28T01:28:07;6.40;99.90
11559;DHT22;5835;42.930;25.178;2023-02-28T01:30:34;6.30;99.90
11559;DHT22;5835;42.930;25.178;2023-02-28T01:33:03;6.30;99.90
11559;DHT22;5835;42.930;25.178;2023-02-28T01:35:32;6.20;99.90
11559;DHT22;5835;42.930;25.178;2023-02-28T01:38:00;6.10;99.90
11559;DHT22;5835;42.930;25.178;2023-02-28T01:40:28;6.20;99.90
11559;DHT22;5835;42.930;25.178;2023-02-28T01:42:55;6.20;99.90
11559;DHT22;5835;42.930;25.178;2023-02-28T01:45:26;6.20;99.90
11559;DHT22;5835;42.930;25.178;2023-02-28T01:47:57;6.10;99.90
11559;DHT22;5835;42.930;25.178;2023-02-28T01:50:31;6.00;99.90
11559;DHT22;5835;42.930;25.178;2023-02-28T01:53:02;6.10;99.90
11559;DHT22;5835;42.930;25.178;2023-02-28T01:55:35;6.10;99.90
11559;DHT22;5835;42.930;25.178;2023-02-28T01:58:06;6.10;99.90
11559;DHT22;5835;42.930;25.178;2023-02-28T02:00:35;6.30;99.90
11559;DHT22;5835;42.930;25.178;2023-02-28T02:03:07;6.10;99.90
11559;DHT22;5835;42.930;25.178;2023-02-28T02:05:39;6.10;99.90
11559;DHT22;5835;42.930;25.178;2023-02-28T02:08:09;6.00;99.90
11559;DHT22;5835;42.930;25.178;2023-02-28T02:10:41;6.00;99.90
11559;DHT22;5835;42.930;25.178;2023-02-28T02:16:22;6.00;99.90
11559;DHT22;5835;42.930;25.178;2023-02-28T02:18:53;6.00;99.90
11559;DHT22;5835;42.930;25.178;2023-02-28T02:24:58;6.00;99.90
11559;DHT22;5835;42.930;25.178;2023-02-28T02:27:57;6.00;99.90
11559;DHT22;5835;42.930;25.178;2023-02-28T02:36:38;6.00;99.90
11559;DHT22;5835;42.930;25.178;2023-02-28T02:39:12;6.00;99.90
11559;DHT22;5835;42.930;25.178;2023-02-28T02:41:45;6.00;99.90
11559;DHT22;5835;42.930;25.178;2023-02-28T02:44:17;6.00;99.90
11559;DHT22;5835;42.930;25.178;2023-02-28T02:46:49;6.10;99.90
11559;DHT22;5835;42.930;25.178;2023-02-28T02:49:22;6.10;99.90
11559;DHT22;5835;42.930;25.178;2023-02-28T02:51:53;6.10;99.90
11559;DHT22;5835;42.930;25.178;2023-02-28T02:54:23;6.10;99.90
11559;DHT22;5835;42.930;25.178;2023-02-28T02:56:56;6.20;99.90
11559;DHT22;5835;42.930;25.178;2023-02-28T02:59:26;6.30;99.90
11559;DHT22;5835;42.930;25.178;2023-02-28T03:01:56;6.40;99.90
11559;DHT22;5835;42.930;25.178;2023-02-28T03:04:27;6.30;99.90
11559;DHT22;5835;42.930;25.178;2023-02-28T03:06:59;6.30;99.90
11559;DHT22;5835;42.930;25.178;2023-02-28T03:09:26;6.40;99.90
11559;DHT22;5835;42.930;25.178;2023-02-28T03:11:55;6.50;99.90
11559;DHT22;5835;42.930;25.178;2023-02-28T03:14:32;6.50;99.90
11559;DHT22;5835;42.930;25.178;2023-02-28T03:17:30;6.50;99.90
11559;DHT22;5835;42.930;25.178;2023-02-28T03:20:04;6.50;99.90
11559;DHT22;5835;42.930;25.178;2023-02-28T03:22:46;6.60;99.90
11559;DHT22;5835;42.930;25.178;2023-02-28T03:25:20;6.60;99.90
11559;DHT22;5835;42.930;25.178;2023-02-28T03:28:02;6.60;99.90
11559;DHT22;5835;42.930;25.178;2023-02-28T03:30:36;6.70;99.90
11559;DHT22;5835;42.930;25.178;2023-02-28T03:33:09;6.70;99.90
11559;DHT22;5835;42.930;25.178;2023-02-28T03:35:41;6.70;99.90
11559;DHT22;5835;42.930;25.178;2023-02-28T03:38:15;6.70;99.90
11559;DHT22;5835;42.930;25.178;2023-02-28T03:40:48;6.70;99.90
11559;DHT22;5835;42.930;25.178;2023-02-28T03:43:21;6.60;99.90
11559;DHT22;5835;42.930;25.178;2023-02-28T03:45:50;6.60;99.90
11559;DHT22;5835;42.930;25.178;2023-02-28T03:48:21;6.60;99.90
11559;DHT22;5835;42.930;25.178;2023-02-28T03:50:53;6.50;99.90
11559;DHT22;5835;42.930;25.178;2023-02-28T03:53:27;6.50;99.90
11559;DHT22;5835;42.930;25.178;2023-02-28T03:55:58;6.60;99.90
11559;DHT22;5835;42.930;25.178;2023-02-28T03:58:30;6.60;99.90
11559;DHT22;5835;42.930;25.178;2023-02-28T04:01:04;6.70;99.90
11559;DHT22;5835;42.930;25.178;2023-02-28T04:03:35;6.70;99.90
11559;DHT22;5835;42.930;25.178;2023-02-28T04:06:03;6.70;99.90
11559;DHT22;5835;42.930;25.178;2023-02-28T04:08:33;6.70;99.90
11559;DHT22;5835;42.930;25.178;2023-02-28T04:11:03;6.80;99.90
11559;DHT22;5835;42.930;25.178;2023-02-28T04:13:32;6.80;99.90
11559;DHT22;5835;42.930;25.178;2023-02-28T04:15:59;6.70;99.90
11559;DHT22;5835;42.930;25.178;2023-02-28T04:18:27;6.70;99.90
11559;DHT22;5835;42.930;25.178;2023-02-28T04:20:54;6.70;99.90
11559;DHT22;5835;42.930;25.178;2023-02-28T04:23:22;6.80;99.90
11559;DHT22;5835;42.930;25.178;2023-02-28T04:25:54;6.70;99.90
11559;DHT22;5835;42.930;25.178;2023-02-28T04:28:21;6.70;99.90
11559;DHT22;5835;42.930;25.178;2023-02-28T04:30:55;6.70;99.90
11559;DHT22;5835;42.930;25.178;2023-02-28T04:33:22;6.70;99.90
11559;DHT22;5835;42.930;25.178;2023-02-28T04:35:58;6.70;99.90
11559;DHT22;5835;42.930;25.178;2023-02-28T04:38:26;6.70;99.90
11559;DHT22;5835;42.930;25.178;2023-02-28T04:40:57;6.70;99.90
11559;DHT22;5835;42.930;25.178;2023-02-28T04:43:26;6.70;99.90
11559;DHT22;5835;42.930;25.178;2023-02-28T04:45:53;6.80;99.90
11559;DHT22;5835;42.930;25.178;2023-02-28T04:48:23;6.80;99.90
11559;DHT22;5835;42.930;25.178;2023-02-28T04:50:51;6.80;99.90
11559;DHT22;5835;42.930;25.178;2023-02-28T04:53:18;6.80;99.90
11559;DHT22;5835;42.930;25.178;2023-02-28T04:55:46;6.80;99.90
11559;DHT22;5835;42.930;25.178;2023-02-28T04:58:15;6.90;99.90
11559;DHT22;5835;42.930;25.178;2023-02-28T05:00:43;6.90;99.90
11559;DHT22;5835;42.930;25.178;2023-02-28T05:03:11;6.90;99.90
11559;DHT22;5835;42.930;25.178;2023-02-28T05:05:38;7.00;99.90
11559;DHT22;5835;42.930;25.178;2023-02-28T05:08:06;7.00;99.90
11559;DHT22;5835;42.930;25.178;2023-02-28T05:10:33;7.00;99.90
11559;DHT22;5835;42.930;25.178;2023-02-28T05:13:01;7.10;99.90
11559;DHT22;5835;42.930;25.178;2023-02-28T05:15:30;7.00;99.90
11559;DHT22;5835;42.930;25.178;2023-02-28T05:17:57;7.00;99.90
11559;DHT22;5835;42.930;25.178;2023-02-28T05:20:24;6.90;99.90
11559;DHT22;5835;42.930;25.178;2023-02-28T05:22:52;6.80;99.90
11559;DHT22;5835;42.930;25.178;2023-02-28T05:25:20;6.90;99.90
11559;DHT22;5835;42.930;25.178;2023-02-28T05:27:48;7.00;99.90
11559;DHT22;5835;42.930;25.178;2023-02-28T05:30:16;7.10;99.90
11559;DHT22;5835;42.930;25.178;2023-02-28T05:32:50;7.00;99.90
11559;DHT22;5835;42.930;25.178;2023-02-28T05:35:18;7.10;99.90
11559;DHT22;5835;42.930;25.178;2023-02-28T05:37:47;7.20;99.90
11559;DHT22;5835;42.930;25.178;2023-02-28T05:40:15;7.30;99.90
11559;DHT22;5835;42.930;25.178;2023-02-28T05:42:43;7.20;99.90
11559;DHT22;5835;42.930;25.178;2023-02-28T05:45:11;7.10;99.90
11559;DHT22;5835;42.930;25.178;2023-02-28T05:47:41;7.10;99.90
11559;DHT22;5835;42.930;25.178;2023-02-28T05:50:10;6.90;99.90
11559;DHT22;5835;42.930;25.178;2023-02-28T05:52:38;6.80;99.90
11559;DHT22;5835;42.930;25.178;2023-02-28T05:55:06;6.80;99.90
11559;DHT22;5835;42.930;25.178;2023-02-28T05:57:34;6.70;99.90
11559;DHT22;5835;42.930;25.178;2023-02-28T06:00:03;6.60;99.90
11559;DHT22;5835;42.930;25.178;2023-02-28T06:02:31;6.60;99.90
11559;DHT22;5835;42.930;25.178;2023-02-28T06:04:58;6.60;99.90
11559;DHT22;5835;42.930;25.178;2023-02-28T06:07:27;6.60;99.90
11559;DHT22;5835;42.930;25.178;2023-02-28T06:09:55;6.60;99.90
11559;DHT22;5835;42.930;25.178;2023-02-28T06:12:23;6.60;99.90
11559;DHT22;5835;42.930;25.178;2023-02-28T06:14:50;6.60;99.90
11559;DHT22;5835;42.930;25.178;2023-02-28T06:17:17;6.60;99.90
11559;DHT22;5835;42.930;25.178;2023-02-28T06:19:45;6.60;99.90
11559;DHT22;5835;42.930;25.178;2023-02-28T06:22:13;6.70;99.90
11559;DHT22;5835;42.930;25.178;2023-02-28T06:24:42;6.60;99.90
11559;DHT22;5835;42.930;25.178;2023-02-28T06:27:12;6.70;99.90
11559;DHT22;5835;42.930;25.178;2023-02-28T06:29:39;6.60;99.90
11559;DHT22;5835;42.930;25.178;2023-02-28T06:32:07;6.70;99.90
11559;DHT22;5835;42.930;25.178;2023-02-28T06:34:34;6.80;99.90
11559;DHT22;5835;42.930;25.178;2023-02-28T06:37:03;6.80;99.90
11559;DHT22;5835;42.930;25.178;2023-02-28T06:39:33;6.70;99.90
11559;DHT22;5835;42.930;25.178;2023-02-28T06:42:02;6.80;99.90
11559;DHT22;5835;42.930;25.178;2023-02-28T06:44:30;7.00;99.90
11559;DHT22;5835;42.930;25.178;2023-02-28T06:47:01;6.90;99.90
11559;DHT22;5835;42.930;25.178;2023-02-28T06:49:29;6.90;99.90
11559;DHT22;5835;42.930;25.178;2023-02-28T06:51:57;7.10;99.90
11559;DHT22;5835;42.930;25.178;2023-02-28T06:54:24;7.10;99.90
11559;DHT22;5835;42.930;25.178;2023-02-28T06:56:52;7.30;99.90
11559;DHT22;5835;42.930;25.178;2023-02-28T06:59:21;7.50;99.90
11559;DHT22;5835;42.930;25.178;2023-02-28T07:01:49;7.60;99.90
11559;DHT22;5835;42.930;25.178;2023-02-28T07:04:16;7.80;99.90
11559;DHT22;5835;42.930;25.178;2023-02-28T07:06:44;7.90;99.90
11559;DHT22;5835;42.930;25.178;2023-02-28T07:09:14;8.00;99.90
11559;DHT22;5835;42.930;25.178;2023-02-28T07:11:41;8.00;99.90
11559;DHT22;5835;42.930;25.178;2023-02-28T07:14:09;8.00;99.90
11559;DHT22;5835;42.930;25.178;2023-02-28T07:16:38;8.10;99.90
11559;DHT22;5835;42.930;25.178;2023-02-28T07:19:09;8.20;99.90
11559;DHT22;5835;42.930;25.178;2023-02-28T07:21:36;7.90;99.90
11559;DHT22;5835;42.930;25.178;2023-02-28T07:24:04;7.90;99.90
11559;DHT22;5835;42.930;25.178;2023-02-28T07:26:32;8.00;99.90
11559;DHT22;5835;42.930;25.178;2023-02-28T07:29:01;7.90;99.90
11559;DHT22;5835;42.930;25.178;2023-02-28T07:31:28;7.90;99.90
11559;DHT22;5835;42.930;25.178;2023-02-28T07:33:57;7.90;99.90
11559;DHT22;5835;42.930;25.178;2023-02-28T07:36:25;7.70;99.90
11559;DHT22;5835;42.930;25.178;2023-02-28T07:38:52;7.50;99.90
11559;DHT22;5835;42.930;25.178;2023-02-28T07:41:22;7.40;99.90
11559;DHT22;5835;42.930;25.178;2023-02-28T07:43:53;7.30;99.90
11559;DHT22;5835;42.930;25.178;2023-02-28T07:46:23;7.30;99.90
11559;DHT22;5835;42.930;25.178;2023-02-28T07:48:50;7.20;99.90
11559;DHT22;5835;42.930;25.178;2023-02-28T07:51:22;7.00;99.90
11559;DHT22;5835;42.930;25.178;2023-02-28T07:53:53;6.80;99.90
11559;DHT22;5835;42.930;25.178;2023-02-28T07:56:21;6.80;99.90
11559;DHT22;5835;42.930;25.178;2023-02-28T07:58:48;6.70;99.90
11559;DHT22;5835;42.930;25.178;2023-02-28T08:01:15;6.60;99.90
11559;DHT22;5835;42.930;25.178;2023-02-28T08:03:45;6.80;99.90
11559;DHT22;5835;42.930;25.178;2023-02-28T08:06:17;6.80;99.90
11559;DHT22;5835;42.930;25.178;2023-02-28T08:08:46;6.70;99.90
11559;DHT22;5835;42.930;25.178;2023-02-28T08:11:14;6.60;99.90
11559;DHT22;5835;42.930;25.178;2023-02-28T08:13:42;6.70;99.90
11559;DHT22;5835;42.930;25.178;2023-02-28T08:16:09;6.60;99.90
11559;DHT22;5835;42.930;25.178;2023-02-28T08:18:39;6.50;99.90
11559;DHT22;5835;42.930;25.178;2023-02-28T08:21:07;6.60;99.90
11559;DHT22;5835;42.930;25.178;2023-02-28T08:23:35;6.60;99.90
11559;DHT22;5835;42.930;25.178;2023-02-28T08:26:04;6.50;99.90
11559;DHT22;5835;42.930;25.178;2023-02-28T08:28:32;6.40;99.90
11559;DHT22;5835;42.930;25.178;2023-02-28T08:31:00;6.50;99.90
11559;DHT22;5835;42.930;25.178;2023-02-28T08:33:28;6.30;99.90
11559;DHT22;5835;42.930;25.178;2023-02-28T08:35:55;6.30;99.90
11559;DHT22;5835;42.930;25.178;2023-02-28T08:38:24;6.40;99.90
11559;DHT22;5835;42.930;25.178;2023-02-28T08:40:57;6.30;99.90
11559;DHT22;5835;42.930;25.178;2023-02-28T08:43:27;6.30;99.90
11559;DHT22;5835;42.930;25.178;2023-02-28T08:45:56;6.40;99.90
11559;DHT22;5835;42.930;25.178;2023-02-28T08:48:23;6.20;99.90
11559;DHT22;5835;42.930;25.178;2023-02-28T08:50:59;6.30;99.90
11559;DHT22;5835;42.930;25.178;2023-02-28T08:53:26;6.30;99.90
11559;DHT22;5835;42.930;25.178;2023-02-28T08:55:58;6.30;99.90
11559;DHT22;5835;42.930;25.178;2023-02-28T08:58:27;6.20;99.90
11559;DHT22;5835;42.930;25.178;2023-02-28T09:00:55;6.10;99.90
11559;DHT22;5835;42.930;25.178;2023-02-28T09:03:23;6.10;99.90
11559;DHT22;5835;42.930;25.178;2023-02-28T09:05:54;6.20;99.90
11559;DHT22;5835;42.930;25.178;2023-02-28T09:08:22;6.30;99.90
11559;DHT22;5835;42.930;25.178;2023-02-28T09:10:50;6.10;99.90
11559;DHT22;5835;42.930;25.178;2023-02-28T09:13:18;6.10;99.90
11559;DHT22;5835;42.930;25.178;2023-02-28T09:15:47;6.30;99.90
11559;DHT22;5835;42.930;25.178;2023-02-28T09:18:14;6.10;99.90
11559;DHT22;5835;42.930;25.178;2023-02-28T09:20:42;6.00;99.90
11559;DHT22;5835;42.930;25.178;2023-02-28T09:23:11;6.00;99.90
11559;DHT22;5835;42.930;25.178;2023-02-28T09:25:45;6.10;99.90
11559;DHT22;5835;42.930;25.178;2023-02-28T09:28:13;6.10;99.90
11559;DHT22;5835;42.930;25.178;2023-02-28T09:30:41;6.10;99.90
11559;DHT22;5835;42.930;25.178;2023-02-28T09:33:11;6.10;99.90
11559;DHT22;5835;42.930;25.178;2023-02-28T09:35:39;6.00;99.90
11559;DHT22;5835;42.930;25.178;2023-02-28T09:38:07;6.30;99.90
11559;DHT22;5835;42.930;25.178;2023-02-28T09:40:47;6.10;99.90
11559;DHT22;5835;42.930;25.178;2023-02-28T09:43:16;6.00;99.90
11559;DHT22;5835;42.930;25.178;2023-02-28T09:45:48;6.10;99.90
11559;DHT22;5835;42.930;25.178;2023-02-28T09:48:23;5.90;99.90
11559;DHT22;5835;42.930;25.178;2023-02-28T09:51:00;6.00;99.90
11559;DHT22;5835;42.930;25.178;2023-02-28T09:53:31;6.00;99.90
11559;DHT22;5835;42.930;25.178;2023-02-28T09:56:04;6.10;99.90
11559;DHT22;5835;42.930;25.178;2023-02-28T09:58:37;6.00;99.90
11559;DHT22;5835;42.930;25.178;2023-02-28T10:01:12;6.10;99.90
11559;DHT22;5835;42.930;25.178;2023-02-28T10:03:52;6.00;99.90
11559;DHT22;5835;42.930;25.178;2023-02-28T10:06:28;6.10;99.90
11559;DHT22;5835;42.930;25.178;2023-02-28T10:09:01;5.90;99.90
11559;DHT22;5835;42.930;25.178;2023-02-28T10:11:32;6.10;99.90
11559;DHT22;5835;42.930;25.178;2023-02-28T10:14:03;5.90;99.90
11559;DHT22;5835;42.930;25.178;2023-02-28T10:16:36;5.90;99.90
11559;DHT22;5835;42.930;25.178;2023-02-28T10:19:13;6.10;99.90
11559;DHT22;5835;42.930;25.178;2023-02-28T10:21:44;6.00;99.90
11559;DHT22;5835;42.930;25.178;2023-02-28T10:24:20;6.10;99.90
11559;DHT22;5835;42.930;25.178;2023-02-28T10:26:49;6.00;99.90
11559;DHT22;5835;42.930;25.178;2023-02-28T10:29:19;6.20;99.90
11559;DHT22;5835;42.930;25.178;2023-02-28T10:31:47;6.20;99.90
11559;DHT22;5835;42.930;25.178;2023-02-28T10:34:16;6.10;99.90
11559;DHT22;5835;42.930;25.178;2023-02-28T10:36:44;6.00;99.90
11559;DHT22;5835;42.930;25.178;2023-02-28T10:39:34;6.10;99.90
11559;DHT22;5835;42.930;25.178;2023-02-28T10:42:02;6.00;99.90
11559;DHT22;5835;42.930;25.178;2023-02-28T10:44:30;6.10;99.90
11559;DHT22;5835;42.930;25.178;2023-02-28T10:47:00;6.10;99.90
11559;DHT22;5835;42.930;25.178;2023-02-28T10:49:30;6.10;99.90
11559;DHT22;5835;42.930;25.178;2023-02-28T10:52:00;6.10;99.90
11559;DHT22;5835;42.930;25.178;2023-02-28T10:54:30;6.20;99.90
11559;DHT22;5835;42.930;25.178;2023-02-28T10:57:08;6.20;99.90
11559;DHT22;5835;42.930;25.178;2023-02-28T10:59:42;6.20;99.90
11559;DHT22;5835;42.930;25.178;2023-02-28T11:02:33;6.30;99.90
11559;DHT22;5835;42.930;25.178;2023-02-28T11:05:31;6.30;99.90
11559;DHT22;5835;42.930;25.178;2023-02-28T11:08:06;6.30;99.90
11559;DHT22;5835;42.930;25.178;2023-02-28T11:10:34;6.40;99.90
11559;DHT22;5835;42.930;25.178;2023-02-28T11:13:02;6.40;99.90
11559;DHT22;5835;42.930;25.178;2023-02-28T11:15:31;6.30;99.90
11559;DHT22;5835;42.930;25.178;2023-02-28T11:18:01;6.30;99.90
11559;DHT22;5835;42.930;25.178;2023-02-28T11:20:32;6.30;99.90
11559;DHT22;5835;42.930;25.178;2023-02-28T11:23:03;6.30;99.90
11559;DHT22;5835;42.930;25.178;2023-02-28T11:25:35;6.30;99.90
11559;DHT22;5835;42.930;25.178;2023-02-28T11:28:05;6.20;99.90
11559;DHT22;5835;42.930;25.178;2023-02-28T11:30:35;6.40;99.90
11559;DHT22;5835;42.930;25.178;2023-02-28T11:33:22;6.30;99.90
11559;DHT22;5835;42.930;25.178;2023-02-28T11:35:53;6.20;99.90
11559;DHT22;5835;42.930;25.178;2023-02-28T11:38:21;6.30;99.90
11559;DHT22;5835;42.930;25.178;2023-02-28T11:41:05;6.40;99.90
11559;DHT22;5835;42.930;25.178;2023-02-28T11:43:49;6.20;99.90
11559;DHT22;5835;42.930;25.178;2023-02-28T11:46:29;6.30;99.90
11559;DHT22;5835;42.930;25.178;2023-02-28T11:49:05;6.30;99.90
11559;DHT22;5835;42.930;25.178;2023-02-28T11:51:47;6.20;99.90
11559;DHT22;5835;42.930;25.178;2023-02-28T11:54:48;6.30;99.90
11559;DHT22;5835;42.930;25.178;2023-02-28T12:00:19;6.30;99.90
11559;DHT22;5835;42.930;25.178;2023-02-28T12:03:04;6.20;99.90
11559;DHT22;5835;42.930;25.178;2023-02-28T12:05:41;6.10;99.90
11559;DHT22;5835;42.930;25.178;2023-02-28T12:08:25;6.10;99.90
11559;DHT22;5835;42.930;25.178;2023-02-28T12:11:02;6.10;99.90
11559;DHT22;5835;42.930;25.178;2023-02-28T12:13:41;6.10;99.90
11559;DHT22;5835;42.930;25.178;2023-02-28T12:16:27;6.20;99.90
11559;DHT22;5835;42.930;25.178;2023-02-28T12:19:13;6.10;99.90
11559;DHT22;5835;42.930;25.178;2023-02-28T12:21:53;6.30;99.90
11559;DHT22;5835;42.930;25.178;2023-02-28T12:27:20;6.20;99.90
11559;DHT22;5835;42.930;25.178;2023-02-28T12:29:51;6.30;99.90
11559;DHT22;5835;42.930;25.178;2023-02-28T12:32:23;6.30;99.90
11559;DHT22;5835;42.930;25.178;2023-02-28T12:34:56;6.30;99.90
11559;DHT22;5835;42.930;25.178;2023-02-28T12:37:29;6.30;99.90
11559;DHT22;5835;42.930;25.178;2023-02-28T12:40:04;6.00;99.90
11559;DHT22;5835;42.930;25.178;2023-02-28T12:42:39;6.10;99.90
11559;DHT22;5835;42.930;25.178;2023-02-28T12:45:11;6.10;99.90
11559;DHT22;5835;42.930;25.178;2023-02-28T12:47:46;6.00;99.90
11559;DHT22;5835;42.930;25.178;2023-02-28T12:50:16;5.90;99.90
11559;DHT22;5835;42.930;25.178;2023-02-28T12:52:50;5.90;99.90
11559;DHT22;5835;42.930;25.178;2023-02-28T12:55:25;5.90;99.90
11559;DHT22;5835;42.930;25.178;2023-02-28T12:58:01;6.10;99.90
11559;DHT22;5835;42.930;25.178;2023-02-28T13:00:35;5.90;99.90
11559;DHT22;5835;42.930;25.178;2023-02-28T13:03:30;5.90;99.90
11559;DHT22;5835;42.930;25.178;2023-02-28T13:09:09;5.90;99.90
11559;DHT22;5835;42.930;25.178;2023-02-28T13:11:43;6.00;99.90
11559;DHT22;5835;42.930;25.178;2023-02-28T13:14:24;6.00;99.90
11559;DHT22;5835;42.930;25.178;2023-02-28T13:17:01;5.90;99.90
11559;DHT22;5835;42.930;25.178;2023-02-28T13:19:31;5.90;99.90
11559;DHT22;5835;42.930;25.178;2023-02-28T13:22:01;5.80;99.90
11559;DHT22;5835;42.930;25.178;2023-02-28T13:24:48;5.80;99.90
11559;DHT22;5835;42.930;25.178;2023-02-28T13:27:37;5.80;99.90
11559;DHT22;5835;42.930;25.178;2023-02-28T13:33:25;5.90;99.90
11559;DHT22;5835;42.930;25.178;2023-02-28T13:36:11;5.70;99.90
11559;DHT22;5835;42.930;25.178;2023-02-28T13:38:50;5.70;99.90
11559;DHT22;5835;42.930;25.178;2023-02-28T13:41:48;5.70;99.90
11559;DHT22;5835;42.930;25.178;2023-02-28T13:44:19;5.80;99.90
11559;DHT22;5835;42.930;25.178;2023-02-28T13:47:23;5.90;99.90
11559;DHT22;5835;42.930;25.178;2023-02-28T13:49:52;5.80;99.90
11559;DHT22;5835;42.930;25.178;2023-02-28T13:52:22;5.80;99.90
11559;DHT22;5835;42.930;25.178;2023-02-28T13:55:21;5.70;99.90
11559;DHT22;5835;42.930;25.178;2023-02-28T13:58:08;5.80;99.90
11559;DHT22;5835;42.930;25.178;2023-02-28T14:00:57;5.70;99.90
11559;DHT22;5835;42.930;25.178;2023-02-28T14:03:38;5.70;99.90
11559;DHT22;5835;42.930;25.178;2023-02-28T14:06:23;5.70;99.90
11559;DHT22;5835;42.930;25.178;2023-02-28T14:08:55;5.70;99.90
11559;DHT22;5835;42.930;25.178;2023-02-28T14:11:30;5.70;99.90
11559;DHT22;5835;42.930;25.178;2023-02-28T14:13:59;5.60;99.90
11559;DHT22;5835;42.930;25.178;2023-02-28T14:16:36;5.70;99.90
11559;DHT22;5835;42.930;25.178;2023-02-28T14:19:12;5.70;99.90
11559;DHT22;5835;42.930;25.178;2023-02-28T14:21:50;5.80;99.90
11559;DHT22;5835;42.930;25.178;2023-02-28T14:27:40;5.50;99.90
11559;DHT22;5835;42.930;25.178;2023-02-28T14:30:24;5.60;99.90
11559;DHT22;5835;42.930;25.178;2023-02-28T14:33:05;5.60;99.90
11559;DHT22;5835;42.930;25.178;2023-02-28T14:38:43;5.60;99.90
11559;DHT22;5835;42.930;25.178;2023-02-28T14:41:20;5.50;99.90
11559;DHT22;5835;42.930;25.178;2023-02-28T14:43:53;5.50;99.90
11559;DHT22;5835;42.930;25.178;2023-02-28T14:46:26;5.50;99.90
11559;DHT22;5835;42.930;25.178;2023-02-28T14:48:56;5.50;99.90
11559;DHT22;5835;42.930;25.178;2023-02-28T14:51:24;5.50;99.90
11559;DHT22;5835;42.930;25.178;2023-02-28T14:53:57;5.50;99.90
11559;DHT22;5835;42.930;25.178;2023-02-28T14:56:29;5.50;99.90
11559;DHT22;5835;42.930;25.178;2023-02-28T14:58:58;5.30;99.90
11559;DHT22;5835;42.930;25.178;2023-02-28T15:01:26;5.30;99.90
11559;DHT22;5835;42.930;25.178;2023-02-28T15:04:05;5.40;99.90
11559;DHT22;5835;42.930;25.178;2023-02-28T15:06:33;5.40;99.90
11559;DHT22;5835;42.930;25.178;2023-02-28T15:09:08;5.40;99.90
11559;DHT22;5835;42.930;25.178;2023-02-28T15:11:37;5.40;99.90
11559;DHT22;5835;42.930;25.178;2023-02-28T15:14:17;5.30;99.90
11559;DHT22;5835;42.930;25.178;2023-02-28T15:16:49;5.30;99.90
11559;DHT22;5835;42.930;25.178;2023-02-28T15:19:22;5.40;99.90
11559;DHT22;5835;42.930;25.178;2023-02-28T15:21:55;5.50;99.90
11559;DHT22;5835;42.930;25.178;2023-02-28T15:24:35;5.30;99.90
11559;DHT22;5835;42.930;25.178;2023-02-28T15:27:05;5.40;99.90
11559;DHT22;5835;42.930;25.178;2023-02-28T15:29:42;5.40;99.90
11559;DHT22;5835;42.930;25.178;2023-02-28T15:32:24;5.40;99.90
11559;DHT22;5835;42.930;25.178;2023-02-28T15:34:54;5.40;99.90
11559;DHT22;5835;42.930;25.178;2023-02-28T15:37:39;5.40;99.90
11559;DHT22;5835;42.930;25.178;2023-02-28T15:40:15;5.40;99.90
11559;DHT22;5835;42.930;25.178;2023-02-28T15:42:58;5.40;99.90
11559;DHT22;5835;42.930;25.178;2023-02-28T15:45:28;5.30;99.90
11559;DHT22;5835;42.930;25.178;2023-02-28T15:47:55;5.30;99.90
11559;DHT22;5835;42.930;25.178;2023-02-28T15:50:27;5.30;99.90
11559;DHT22;5835;42.930;25.178;2023-02-28T15:52:55;5.30;99.90
11559;DHT22;5835;42.930;25.178;2023-02-28T15:55:28;5.20;99.90
11559;DHT22;5835;42.930;25.178;2023-02-28T15:58:00;5.30;99.90
11559;DHT22;5835;42.930;25.178;2023-02-28T16:00:29;5.30;99.90
11559;DHT22;5835;42.930;25.178;2023-02-28T16:02:58;5.30;99.90
11559;DHT22;5835;42.930;25.178;2023-02-28T16:05:29;5.20;99.90
11559;DHT22;5835;42.930;25.178;2023-02-28T16:08:00;5.20;99.90
11559;DHT22;5835;42.930;25.178;2023-02-28T16:10:29;5.30;99.90
11559;DHT22;5835;42.930;25.178;2023-02-28T16:12:57;5.20;99.90
11559;DHT22;5835;42.930;25.178;2023-02-28T16:15:27;5.30;99.90
11559;DHT22;5835;42.930;25.178;2023-02-28T16:17:56;5.40;99.90
11559;DHT22;5835;42.930;25.178;2023-02-28T16:20:29;5.30;99.90
11559;DHT22;5835;42.930;25.178;2023-02-28T16:22:57;5.40;99.90
11559;DHT22;5835;42.930;25.178;2023-02-28T16:25:33;5.30;99.90
11559;DHT22;5835;42.930;25.178;2023-02-28T16:28:01;5.30;99.90
11559;DHT22;5835;42.930;25.178;2023-02-28T16:30:30;5.40;99.90
11559;DHT22;5835;42.930;25.178;2023-02-28T16:32:59;5.50;99.90
11559;DHT22;5835;42.930;25.178;2023-02-28T16:35:28;5.60;99.90
11559;DHT22;5835;42.930;25.178;2023-02-28T16:37:56;5.50;99.90
11559;DHT22;5835;42.930;25.178;2023-02-28T16:40:25;5.40;99.90
11559;DHT22;5835;42.930;25.178;2023-02-28T16:42:58;5.50;99.90
11559;DHT22;5835;42.930;25.178;2023-02-28T16:45:27;5.30;99.90